RYR6RT EGSS-LEAM
Flight info
| Callsign | RYR6RT |
|---|---|
| Flight time | 2h 33m |
| Altitude | 35000 |
| Route | NUGBO M183 SILVA Q41 COWLY UT71 VAPID UN859 SOPIL DCT BALAN DCT LMG DCT PIMQO DCT AGN DCT ANETO N860 DOSEK |
| Aircraft | B738/M-SDE2E3FGHIRWXY/LB1 |
Departure
| Time | 2026-05-01 11:20 |
|---|---|
| Airport | London Stansted Airport (EGSS) |
Arrival
| Time | 2026-05-01 13:54 |
|---|---|
| Airport | Almería Airport (LEAM) |
| Time | Latitude | Longitude | Altitude | Speed | Heading |
|---|---|---|---|---|---|
| 2026-05-01 10:46 | 51.89407 | 0.25778 | 348 ft | 0 kts | 107° |
| 2026-05-01 11:11 | 51.89412 | 0.25747 | 350 ft | 4 kts | 107° |
| 2026-05-01 11:11 | 51.89419 | 0.25712 | 358 ft | 3 kts | 108° |
| 2026-05-01 11:11 | 51.89430 | 0.25681 | 354 ft | 4 kts | 160° |
| 2026-05-01 11:11 | 51.89449 | 0.25687 | 358 ft | 4 kts | 223° |
| 2026-05-01 11:12 | 51.89462 | 0.25707 | 357 ft | 0 kts | 223° |
| 2026-05-01 11:14 | 51.89456 | 0.25698 | 351 ft | 3 kts | 223° |
| 2026-05-01 11:14 | 51.89431 | 0.25659 | 358 ft | 7 kts | 223° |
| 2026-05-01 11:14 | 51.89384 | 0.25590 | 356 ft | 11 kts | 223° |
| 2026-05-01 11:15 | 51.89317 | 0.25490 | 350 ft | 15 kts | 223° |
| 2026-05-01 11:15 | 51.89233 | 0.25363 | 351 ft | 18 kts | 223° |
| 2026-05-01 11:15 | 51.89133 | 0.25213 | 355 ft | 21 kts | 223° |
| 2026-05-01 11:15 | 51.89019 | 0.25041 | 354 ft | 24 kts | 223° |
| 2026-05-01 11:16 | 51.88892 | 0.24852 | 349 ft | 26 kts | 223° |
| 2026-05-01 11:16 | 51.88755 | 0.24645 | 348 ft | 28 kts | 223° |
| 2026-05-01 11:16 | 51.88611 | 0.24430 | 351 ft | 26 kts | 223° |
| 2026-05-01 11:16 | 51.88473 | 0.24222 | 352 ft | 28 kts | 223° |
| 2026-05-01 11:17 | 51.88347 | 0.24033 | 350 ft | 23 kts | 223° |
| 2026-05-01 11:17 | 51.88223 | 0.23847 | 351 ft | 25 kts | 223° |
| 2026-05-01 11:17 | 51.88088 | 0.23646 | 351 ft | 27 kts | 223° |
| 2026-05-01 11:17 | 51.87955 | 0.23445 | 353 ft | 25 kts | 223° |
| 2026-05-01 11:18 | 51.87834 | 0.23263 | 350 ft | 21 kts | 223° |
| 2026-05-01 11:18 | 51.87743 | 0.23128 | 351 ft | 12 kts | 225° |
| 2026-05-01 11:18 | 51.87745 | 0.23012 | 355 ft | 9 kts | 309° |
| 2026-05-01 11:18 | 51.87756 | 0.22993 | 352 ft | 1 kts | 311° |
| 2026-05-01 11:19 | 51.87779 | 0.22952 | 348 ft | 11 kts | 312° |
| 2026-05-01 11:19 | 51.87844 | 0.22840 | 347 ft | 12 kts | 313° |
| 2026-05-01 11:19 | 51.87910 | 0.22724 | 337 ft | 16 kts | 313° |
| 2026-05-01 11:19 | 51.88002 | 0.22732 | 334 ft | 16 kts | 44° |
| 2026-05-01 11:20 | 51.88148 | 0.22951 | 335 ft | 60 kts | 43° |
| 2026-05-01 11:20 | 51.88631 | 0.23676 | 338 ft | 128 kts | 43° |
| 2026-05-01 11:20 | 51.89424 | 0.24857 | 486 ft | 171 kts | 44° |
| 2026-05-01 11:20 | 51.90308 | 0.26192 | 1256 ft | 177 kts | 49° |
| 2026-05-01 11:21 | 51.91211 | 0.27585 | 2042 ft | 188 kts | 49° |
| 2026-05-01 11:21 | 51.92281 | 0.29128 | 2349 ft | 223 kts | 40° |
| 2026-05-01 11:21 | 51.93808 | 0.30050 | 2813 ft | 249 kts | 8° |
| 2026-05-01 11:21 | 51.95581 | 0.29547 | 3207 ft | 276 kts | 332° |
| 2026-05-01 11:22 | 51.96951 | 0.27324 | 3902 ft | 285 kts | 293° |
| 2026-05-01 11:22 | 51.97429 | 0.24287 | 4997 ft | 276 kts | 272° |
| 2026-05-01 11:22 | 51.97569 | 0.21184 | 5881 ft | 280 kts | 269° |
| 2026-05-01 11:22 | 51.97646 | 0.17999 | 6694 ft | 288 kts | 273° |
| 2026-05-01 11:23 | 51.97959 | 0.14758 | 7498 ft | 292 kts | 277° |
| 2026-05-01 11:23 | 51.98344 | 0.11512 | 8372 ft | 294 kts | 277° |
| 2026-05-01 11:23 | 51.98727 | 0.08230 | 9224 ft | 298 kts | 277° |
| 2026-05-01 11:23 | 51.98870 | 0.04883 | 10005 ft | 298 kts | 258° |
| 2026-05-01 11:24 | 51.98450 | 0.01586 | 10658 ft | 304 kts | 253° |
| 2026-05-01 11:24 | 51.97966 | -0.01906 | 10843 ft | 330 kts | 254° |
| 2026-05-01 11:24 | 51.96957 | -0.09577 | 11699 ft | 358 kts | 255° |
| 2026-05-01 11:25 | 51.96440 | -0.13547 | 12437 ft | 361 kts | 255° |
| 2026-05-01 11:25 | 51.95394 | -0.21575 | 13978 ft | 368 kts | 255° |
| 2026-05-01 11:25 | 51.94860 | -0.25651 | 14626 ft | 372 kts | 255° |
| 2026-05-01 11:26 | 51.94322 | -0.29756 | 15288 ft | 374 kts | 255° |
| 2026-05-01 11:26 | 51.93227 | -0.38074 | 16652 ft | 380 kts | 254° |
| 2026-05-01 11:26 | 51.92671 | -0.42270 | 17310 ft | 383 kts | 254° |
| 2026-05-01 11:27 | 51.92108 | -0.46514 | 17964 ft | 386 kts | 254° |
| 2026-05-01 11:27 | 51.91539 | -0.50788 | 18585 ft | 390 kts | 254° |
| 2026-05-01 11:27 | 51.90965 | -0.55085 | 19143 ft | 392 kts | 254° |
| 2026-05-01 11:27 | 51.90383 | -0.59433 | 19684 ft | 396 kts | 253° |
| 2026-05-01 11:28 | 51.89796 | -0.63806 | 20221 ft | 399 kts | 253° |
| 2026-05-01 11:28 | 51.89202 | -0.68215 | 20745 ft | 402 kts | 253° |
| 2026-05-01 11:28 | 51.88617 | -0.72544 | 21270 ft | 405 kts | 253° |
| 2026-05-01 11:29 | 51.87407 | -0.81469 | 22289 ft | 412 kts | 253° |
| 2026-05-01 11:29 | 51.86780 | -0.86070 | 22807 ft | 415 kts | 253° |
| 2026-05-01 11:29 | 51.85166 | -0.94955 | 23722 ft | 413 kts | 235° |
| 2026-05-01 11:30 | 51.83357 | -0.98484 | 24125 ft | 406 kts | 216° |
| 2026-05-01 11:30 | 51.81140 | -1.00880 | 24546 ft | 401 kts | 203° |
| 2026-05-01 11:30 | 51.78512 | -1.02289 | 24944 ft | 398 kts | 188° |
| 2026-05-01 11:30 | 51.75770 | -1.03008 | 25344 ft | 400 kts | 186° |
| 2026-05-01 11:31 | 51.73008 | -1.03641 | 25713 ft | 403 kts | 186° |
| 2026-05-01 11:31 | 51.70215 | -1.04292 | 26098 ft | 406 kts | 186° |
| 2026-05-01 11:31 | 51.67422 | -1.04986 | 26484 ft | 408 kts | 187° |
| 2026-05-01 11:31 | 51.64609 | -1.05710 | 26862 ft | 410 kts | 187° |
| 2026-05-01 11:32 | 51.61773 | -1.06382 | 27224 ft | 412 kts | 184° |
| 2026-05-01 11:32 | 51.58908 | -1.06482 | 27549 ft | 412 kts | 176° |
| 2026-05-01 11:32 | 51.56044 | -1.06288 | 27905 ft | 415 kts | 176° |
| 2026-05-01 11:32 | 51.53150 | -1.06076 | 28248 ft | 417 kts | 176° |
| 2026-05-01 11:33 | 51.50243 | -1.05876 | 28585 ft | 419 kts | 176° |
| 2026-05-01 11:33 | 51.47320 | -1.05693 | 28905 ft | 422 kts | 176° |
| 2026-05-01 11:33 | 51.44383 | -1.05522 | 29231 ft | 424 kts | 176° |
| 2026-05-01 11:33 | 51.41435 | -1.05358 | 29664 ft | 423 kts | 176° |
| 2026-05-01 11:34 | 51.38503 | -1.05195 | 30189 ft | 420 kts | 176° |
| 2026-05-01 11:34 | 51.35583 | -1.05033 | 30623 ft | 418 kts | 176° |
| 2026-05-01 11:34 | 51.32678 | -1.04875 | 30951 ft | 418 kts | 177° |
| 2026-05-01 11:34 | 51.29767 | -1.04724 | 31280 ft | 419 kts | 177° |
| 2026-05-01 11:35 | 51.26869 | -1.04359 | 31614 ft | 417 kts | 169° |
| 2026-05-01 11:35 | 51.24048 | -1.03353 | 31965 ft | 416 kts | 163° |
| 2026-05-01 11:35 | 51.21349 | -1.01703 | 32302 ft | 415 kts | 155° |
| 2026-05-01 11:35 | 51.18731 | -0.99777 | 32654 ft | 414 kts | 155° |
| 2026-05-01 11:36 | 51.16159 | -0.97865 | 32962 ft | 414 kts | 155° |
| 2026-05-01 11:36 | 51.13550 | -0.95933 | 33275 ft | 414 kts | 155° |
| 2026-05-01 11:36 | 51.10940 | -0.94019 | 33610 ft | 413 kts | 155° |
| 2026-05-01 11:36 | 51.08335 | -0.92122 | 33944 ft | 412 kts | 155° |
| 2026-05-01 11:37 | 51.05726 | -0.90233 | 34240 ft | 412 kts | 155° |
| 2026-05-01 11:37 | 51.03120 | -0.88353 | 34471 ft | 412 kts | 155° |
| 2026-05-01 11:37 | 51.00504 | -0.86469 | 34683 ft | 413 kts | 156° |
| 2026-05-01 11:37 | 50.97884 | -0.84584 | 34936 ft | 413 kts | 156° |
| 2026-05-01 11:38 | 50.95265 | -0.82701 | 35159 ft | 413 kts | 156° |
| 2026-05-01 11:38 | 50.89981 | -0.78909 | 35198 ft | 419 kts | 156° |
| 2026-05-01 11:39 | 50.84724 | -0.74994 | 35184 ft | 415 kts | 149° |
| 2026-05-01 11:39 | 50.79896 | -0.70091 | 35204 ft | 413 kts | 147° |
| 2026-05-01 11:40 | 50.75088 | -0.65132 | 35209 ft | 412 kts | 148° |
| 2026-05-01 11:40 | 50.70275 | -0.60215 | 35213 ft | 412 kts | 148° |
| 2026-05-01 11:41 | 50.65449 | -0.55320 | 35211 ft | 412 kts | 148° |
| 2026-05-01 11:41 | 50.60619 | -0.50440 | 35213 ft | 413 kts | 148° |
| 2026-05-01 11:42 | 50.55778 | -0.45561 | 35194 ft | 413 kts | 148° |
| 2026-05-01 11:42 | 50.50933 | -0.40690 | 35200 ft | 414 kts | 148° |
| 2026-05-01 11:43 | 50.46073 | -0.35815 | 35216 ft | 414 kts | 148° |
| 2026-05-01 11:43 | 50.41239 | -0.30979 | 35217 ft | 415 kts | 148° |
| 2026-05-01 11:44 | 50.33899 | -0.23657 | 35216 ft | 415 kts | 148° |
| 2026-05-01 11:44 | 50.29052 | -0.18837 | 35218 ft | 416 kts | 148° |
| 2026-05-01 11:45 | 50.24169 | -0.13994 | 35219 ft | 416 kts | 148° |
| 2026-05-01 11:45 | 50.19281 | -0.09155 | 35217 ft | 416 kts | 148° |
| 2026-05-01 11:46 | 50.14396 | -0.04331 | 35220 ft | 416 kts | 148° |
| 2026-05-01 11:46 | 50.09370 | 0.00091 | 35218 ft | 415 kts | 158° |
| 2026-05-01 11:47 | 50.03823 | 0.02550 | 35225 ft | 415 kts | 166° |
| 2026-05-01 11:47 | 49.98266 | 0.04649 | 35219 ft | 415 kts | 166° |
| 2026-05-01 11:48 | 49.92665 | 0.06807 | 35221 ft | 415 kts | 165° |
| 2026-05-01 11:48 | 49.87143 | 0.08962 | 35218 ft | 415 kts | 165° |
| 2026-05-01 11:49 | 49.81536 | 0.11152 | 35214 ft | 415 kts | 165° |
| 2026-05-01 11:49 | 49.75927 | 0.13337 | 35213 ft | 416 kts | 165° |
| 2026-05-01 11:50 | 49.70312 | 0.15519 | 35213 ft | 416 kts | 165° |
| 2026-05-01 11:50 | 49.64694 | 0.17734 | 35213 ft | 416 kts | 165° |
| 2026-05-01 11:51 | 49.59087 | 0.20018 | 35214 ft | 417 kts | 164° |
| 2026-05-01 11:51 | 49.53513 | 0.22284 | 35210 ft | 417 kts | 165° |
| 2026-05-01 11:52 | 49.47892 | 0.24555 | 35216 ft | 418 kts | 165° |
| 2026-05-01 11:52 | 49.42261 | 0.26821 | 35209 ft | 418 kts | 165° |
| 2026-05-01 11:53 | 49.37585 | 0.28700 | 35218 ft | 418 kts | 164° |
| 2026-05-01 11:53 | 49.31948 | 0.30959 | 35212 ft | 418 kts | 164° |
| 2026-05-01 11:54 | 49.26327 | 0.33274 | 35219 ft | 418 kts | 163° |
| 2026-05-01 11:54 | 49.20720 | 0.35649 | 35207 ft | 418 kts | 163° |
| 2026-05-01 11:55 | 49.15111 | 0.38015 | 35200 ft | 418 kts | 163° |
| 2026-05-01 11:55 | 49.09503 | 0.40366 | 35209 ft | 417 kts | 163° |
| 2026-05-01 11:56 | 49.03905 | 0.42704 | 35202 ft | 417 kts | 163° |
| 2026-05-01 11:56 | 48.98366 | 0.45011 | 35210 ft | 417 kts | 164° |
| 2026-05-01 11:57 | 48.92767 | 0.47339 | 35203 ft | 417 kts | 164° |
| 2026-05-01 11:57 | 48.87162 | 0.49664 | 35210 ft | 417 kts | 164° |
| 2026-05-01 11:58 | 48.81556 | 0.51985 | 35204 ft | 418 kts | 164° |
| 2026-05-01 11:59 | 48.73153 | 0.55354 | 35224 ft | 419 kts | 165° |
| 2026-05-01 11:59 | 48.67500 | 0.57545 | 35214 ft | 420 kts | 165° |
| 2026-05-01 12:00 | 48.58996 | 0.60855 | 35209 ft | 422 kts | 165° |
| 2026-05-01 12:01 | 48.50454 | 0.64188 | 35231 ft | 424 kts | 164° |
| 2026-05-01 12:01 | 48.44748 | 0.66509 | 35224 ft | 426 kts | 164° |
| 2026-05-01 12:02 | 48.39018 | 0.68850 | 35228 ft | 427 kts | 164° |
| 2026-05-01 12:02 | 48.33966 | 0.70900 | 35221 ft | 428 kts | 164° |
| 2026-05-01 12:03 | 48.28211 | 0.73225 | 35218 ft | 428 kts | 165° |
| 2026-05-01 12:03 | 48.22454 | 0.75533 | 35223 ft | 428 kts | 165° |
| 2026-05-01 12:04 | 48.16729 | 0.77786 | 35216 ft | 428 kts | 165° |
| 2026-05-01 12:04 | 48.10969 | 0.80044 | 35219 ft | 428 kts | 165° |
| 2026-05-01 12:05 | 48.05205 | 0.82304 | 35213 ft | 428 kts | 165° |
| 2026-05-01 12:05 | 47.96627 | 0.85661 | 35215 ft | 428 kts | 165° |
| 2026-05-01 12:06 | 47.90859 | 0.87912 | 35217 ft | 428 kts | 165° |
| 2026-05-01 12:06 | 47.85093 | 0.90157 | 35220 ft | 428 kts | 166° |
| 2026-05-01 12:07 | 47.79314 | 0.92399 | 35215 ft | 429 kts | 166° |
| 2026-05-01 12:07 | 47.73532 | 0.94634 | 35220 ft | 430 kts | 166° |
| 2026-05-01 12:08 | 47.67738 | 0.96869 | 35219 ft | 431 kts | 166° |
| 2026-05-01 12:08 | 47.61919 | 0.99109 | 35218 ft | 433 kts | 166° |
| 2026-05-01 12:09 | 47.56062 | 1.01360 | 35207 ft | 436 kts | 167° |
| 2026-05-01 12:09 | 47.50187 | 1.03613 | 35214 ft | 437 kts | 167° |
| 2026-05-01 12:10 | 47.41282 | 1.06471 | 35213 ft | 436 kts | 179° |
| 2026-05-01 12:11 | 47.32214 | 1.06229 | 35209 ft | 437 kts | 183° |
| 2026-05-01 12:11 | 47.26124 | 1.06028 | 35230 ft | 439 kts | 183° |
| 2026-05-01 12:12 | 47.20005 | 1.05881 | 35213 ft | 440 kts | 183° |
| 2026-05-01 12:12 | 47.13883 | 1.05749 | 35210 ft | 440 kts | 183° |
| 2026-05-01 12:13 | 47.07758 | 1.05615 | 35216 ft | 440 kts | 183° |
| 2026-05-01 12:13 | 47.01629 | 1.05475 | 35206 ft | 439 kts | 184° |
| 2026-05-01 12:14 | 46.95517 | 1.05226 | 35214 ft | 439 kts | 185° |
| 2026-05-01 12:14 | 46.89422 | 1.04939 | 35217 ft | 439 kts | 185° |
| 2026-05-01 12:15 | 46.83321 | 1.04664 | 35216 ft | 438 kts | 185° |
| 2026-05-01 12:15 | 46.77232 | 1.04400 | 35210 ft | 438 kts | 185° |
| 2026-05-01 12:16 | 46.71148 | 1.04138 | 35211 ft | 437 kts | 185° |
| 2026-05-01 12:16 | 46.65070 | 1.03877 | 35208 ft | 437 kts | 185° |
| 2026-05-01 12:17 | 46.59001 | 1.03617 | 35225 ft | 436 kts | 185° |
| 2026-05-01 12:17 | 46.52929 | 1.03357 | 35205 ft | 436 kts | 185° |
| 2026-05-01 12:18 | 46.46868 | 1.03193 | 35218 ft | 436 kts | 184° |
| 2026-05-01 12:18 | 46.40850 | 1.03159 | 35220 ft | 435 kts | 183° |
| 2026-05-01 12:19 | 46.34798 | 1.03124 | 35215 ft | 435 kts | 183° |
| 2026-05-01 12:19 | 46.28747 | 1.03071 | 35224 ft | 434 kts | 183° |
| 2026-05-01 12:20 | 46.22701 | 1.03010 | 35227 ft | 435 kts | 183° |
| 2026-05-01 12:20 | 46.16659 | 1.02949 | 35223 ft | 433 kts | 183° |
| 2026-05-01 12:21 | 46.10634 | 1.02889 | 35229 ft | 432 kts | 183° |
| 2026-05-01 12:21 | 46.04632 | 1.02829 | 35234 ft | 431 kts | 183° |
| 2026-05-01 12:22 | 45.98711 | 1.02770 | 35241 ft | 430 kts | 183° |
| 2026-05-01 12:22 | 45.92729 | 1.02710 | 35231 ft | 430 kts | 183° |
| 2026-05-01 12:23 | 45.86750 | 1.02651 | 35236 ft | 429 kts | 182° |
| 2026-05-01 12:23 | 45.80783 | 1.02750 | 35227 ft | 430 kts | 175° |
| 2026-05-01 12:24 | 45.74877 | 1.04201 | 35233 ft | 431 kts | 172° |
| 2026-05-01 12:24 | 45.68991 | 1.05791 | 35235 ft | 430 kts | 172° |
| 2026-05-01 12:25 | 45.60163 | 1.08093 | 35232 ft | 430 kts | 172° |
| 2026-05-01 12:26 | 45.54274 | 1.09594 | 35220 ft | 429 kts | 172° |
| 2026-05-01 12:26 | 45.45457 | 1.11834 | 35225 ft | 429 kts | 172° |
| 2026-05-01 12:27 | 45.36645 | 1.14067 | 35218 ft | 428 kts | 172° |
| 2026-05-01 12:28 | 45.27847 | 1.16291 | 35217 ft | 428 kts | 172° |
| 2026-05-01 12:29 | 45.19095 | 1.18496 | 35213 ft | 427 kts | 172° |
| 2026-05-01 12:29 | 45.10312 | 1.18011 | 35239 ft | 422 kts | 192° |
| 2026-05-01 12:30 | 45.01638 | 1.15774 | 35224 ft | 422 kts | 191° |
| 2026-05-01 12:31 | 44.95908 | 1.14304 | 35220 ft | 422 kts | 191° |
| 2026-05-01 12:31 | 44.90121 | 1.12820 | 35215 ft | 422 kts | 191° |
| 2026-05-01 12:32 | 44.84345 | 1.11342 | 35205 ft | 422 kts | 191° |
| 2026-05-01 12:32 | 44.75680 | 1.09129 | 35209 ft | 421 kts | 191° |
| 2026-05-01 12:33 | 44.69910 | 1.07659 | 35211 ft | 421 kts | 191° |
| 2026-05-01 12:33 | 44.64151 | 1.06194 | 35209 ft | 420 kts | 191° |
| 2026-05-01 12:34 | 44.58390 | 1.04732 | 35202 ft | 420 kts | 191° |
| 2026-05-01 12:34 | 44.52637 | 1.03276 | 35208 ft | 420 kts | 191° |
| 2026-05-01 12:35 | 44.46886 | 1.01822 | 35208 ft | 420 kts | 191° |
| 2026-05-01 12:35 | 44.41135 | 1.00372 | 35210 ft | 420 kts | 191° |
| 2026-05-01 12:36 | 44.35426 | 0.98935 | 35203 ft | 419 kts | 191° |
| 2026-05-01 12:36 | 44.29678 | 0.97490 | 35202 ft | 419 kts | 191° |
| 2026-05-01 12:37 | 44.23934 | 0.96050 | 35194 ft | 419 kts | 191° |
| 2026-05-01 12:37 | 44.18187 | 0.94612 | 35196 ft | 419 kts | 191° |
| 2026-05-01 12:38 | 44.12446 | 0.93178 | 35196 ft | 419 kts | 191° |
| 2026-05-01 12:38 | 44.06702 | 0.91746 | 35197 ft | 419 kts | 191° |
| 2026-05-01 12:39 | 44.00939 | 0.90312 | 35191 ft | 421 kts | 191° |
| 2026-05-01 12:39 | 43.96215 | 0.89139 | 35191 ft | 421 kts | 191° |
| 2026-05-01 12:40 | 43.90450 | 0.87709 | 35198 ft | 420 kts | 191° |
| 2026-05-01 12:40 | 43.84712 | 0.86240 | 35194 ft | 419 kts | 192° |
| 2026-05-01 12:41 | 43.78994 | 0.84693 | 35197 ft | 418 kts | 192° |
| 2026-05-01 12:41 | 43.73280 | 0.83147 | 35195 ft | 418 kts | 192° |
| 2026-05-01 12:42 | 43.67572 | 0.81616 | 35194 ft | 417 kts | 192° |
| 2026-05-01 12:42 | 43.61869 | 0.80093 | 35193 ft | 417 kts | 192° |
| 2026-05-01 12:43 | 43.56176 | 0.78577 | 35195 ft | 417 kts | 192° |
| 2026-05-01 12:43 | 43.50511 | 0.77072 | 35193 ft | 417 kts | 192° |
| 2026-05-01 12:44 | 43.44812 | 0.75561 | 35192 ft | 417 kts | 192° |
| 2026-05-01 12:45 | 43.33414 | 0.72546 | 35196 ft | 417 kts | 192° |
| 2026-05-01 12:45 | 43.27708 | 0.71042 | 35198 ft | 417 kts | 192° |
| 2026-05-01 12:46 | 43.22002 | 0.69540 | 35193 ft | 418 kts | 192° |
| 2026-05-01 12:46 | 43.16288 | 0.68039 | 35201 ft | 418 kts | 192° |
| 2026-05-01 12:47 | 43.10607 | 0.66549 | 35200 ft | 418 kts | 192° |
| 2026-05-01 12:47 | 43.04878 | 0.65050 | 35206 ft | 419 kts | 192° |
| 2026-05-01 12:48 | 42.99215 | 0.63571 | 35209 ft | 419 kts | 192° |
| 2026-05-01 12:48 | 42.93484 | 0.62076 | 35207 ft | 419 kts | 192° |
| 2026-05-01 12:49 | 42.87755 | 0.60585 | 35224 ft | 420 kts | 192° |
| 2026-05-01 12:49 | 42.82014 | 0.59094 | 35244 ft | 420 kts | 192° |
| 2026-05-01 12:50 | 42.76297 | 0.57611 | 35246 ft | 421 kts | 192° |
| 2026-05-01 12:50 | 42.70539 | 0.56121 | 35258 ft | 421 kts | 192° |
| 2026-05-01 12:51 | 42.64781 | 0.54640 | 35253 ft | 421 kts | 192° |
| 2026-05-01 12:52 | 42.56122 | 0.52426 | 35240 ft | 422 kts | 192° |
| 2026-05-01 12:52 | 42.47471 | 0.50217 | 35248 ft | 422 kts | 192° |
| 2026-05-01 12:53 | 42.38806 | 0.48011 | 35241 ft | 422 kts | 192° |
| 2026-05-01 12:54 | 42.33041 | 0.46542 | 35237 ft | 422 kts | 192° |
| 2026-05-01 12:54 | 42.24393 | 0.44332 | 35232 ft | 421 kts | 192° |
| 2026-05-01 12:55 | 42.15751 | 0.42130 | 35216 ft | 421 kts | 192° |
| 2026-05-01 12:56 | 42.10025 | 0.40674 | 35208 ft | 421 kts | 192° |
| 2026-05-01 12:56 | 42.04261 | 0.39212 | 35206 ft | 421 kts | 192° |
| 2026-05-01 12:57 | 41.98551 | 0.37765 | 35207 ft | 421 kts | 192° |
| 2026-05-01 12:57 | 41.89907 | 0.35589 | 35201 ft | 421 kts | 191° |
| 2026-05-01 12:58 | 41.84141 | 0.34142 | 35207 ft | 422 kts | 191° |
| 2026-05-01 12:59 | 41.75479 | 0.31971 | 35212 ft | 422 kts | 191° |
| 2026-05-01 12:59 | 41.66802 | 0.29816 | 35205 ft | 422 kts | 191° |
| 2026-05-01 13:00 | 41.58169 | 0.27681 | 35200 ft | 422 kts | 191° |
| 2026-05-01 13:01 | 41.49506 | 0.25543 | 35196 ft | 422 kts | 191° |
| 2026-05-01 13:02 | 41.40850 | 0.23411 | 35194 ft | 421 kts | 191° |
| 2026-05-01 13:07 | 40.79106 | 0.02948 | 35213 ft | 416 kts | 198° |
| 2026-05-01 13:08 | 40.73565 | 0.00717 | 35211 ft | 417 kts | 198° |
| 2026-05-01 13:08 | 40.68015 | -0.01511 | 35216 ft | 418 kts | 198° |
| 2026-05-01 13:09 | 40.62445 | -0.03742 | 35218 ft | 419 kts | 198° |
| 2026-05-01 13:09 | 40.56861 | -0.05975 | 35209 ft | 420 kts | 198° |
| 2026-05-01 13:10 | 40.51255 | -0.08201 | 35201 ft | 421 kts | 198° |
| 2026-05-01 13:10 | 40.45637 | -0.10416 | 35179 ft | 422 kts | 198° |
| 2026-05-01 13:11 | 40.40000 | -0.12637 | 35175 ft | 423 kts | 198° |
| 2026-05-01 13:11 | 40.34360 | -0.14857 | 35161 ft | 423 kts | 198° |
| 2026-05-01 13:12 | 40.28750 | -0.17063 | 35160 ft | 424 kts | 198° |
| 2026-05-01 13:12 | 40.23099 | -0.19284 | 35166 ft | 424 kts | 198° |
| 2026-05-01 13:13 | 40.17449 | -0.21518 | 35180 ft | 424 kts | 198° |
| 2026-05-01 13:13 | 40.11787 | -0.23756 | 35187 ft | 425 kts | 198° |
| 2026-05-01 13:14 | 40.06118 | -0.25992 | 35202 ft | 426 kts | 199° |
| 2026-05-01 13:14 | 40.00444 | -0.28225 | 35218 ft | 426 kts | 199° |
| 2026-05-01 13:15 | 39.94805 | -0.30407 | 35225 ft | 428 kts | 199° |
| 2026-05-01 13:15 | 39.89088 | -0.32603 | 35228 ft | 429 kts | 199° |
| 2026-05-01 13:16 | 39.83362 | -0.34825 | 35237 ft | 430 kts | 199° |
| 2026-05-01 13:16 | 39.78479 | -0.36730 | 35228 ft | 432 kts | 200° |
| 2026-05-01 13:17 | 39.66903 | -0.41226 | 35236 ft | 436 kts | 200° |
| 2026-05-01 13:18 | 39.58163 | -0.44608 | 35233 ft | 437 kts | 200° |
| 2026-05-01 13:18 | 39.52337 | -0.46858 | 35207 ft | 437 kts | 200° |
| 2026-05-01 13:19 | 39.46654 | -0.49503 | 35207 ft | 431 kts | 212° |
| 2026-05-01 13:20 | 39.38769 | -0.55078 | 35202 ft | 430 kts | 213° |
| 2026-05-01 13:20 | 39.33518 | -0.58785 | 35208 ft | 430 kts | 212° |
| 2026-05-01 13:21 | 39.25625 | -0.64269 | 35214 ft | 429 kts | 212° |
| 2026-05-01 13:21 | 39.20363 | -0.67908 | 35222 ft | 429 kts | 212° |
| 2026-05-01 13:22 | 39.15111 | -0.71536 | 35209 ft | 428 kts | 212° |
| 2026-05-01 13:22 | 39.09900 | -0.75132 | 35227 ft | 428 kts | 212° |
| 2026-05-01 13:23 | 39.04656 | -0.78743 | 35219 ft | 427 kts | 212° |
| 2026-05-01 13:23 | 38.99453 | -0.82322 | 35219 ft | 427 kts | 212° |
| 2026-05-01 13:24 | 38.94242 | -0.85904 | 35212 ft | 427 kts | 212° |
| 2026-05-01 13:25 | 38.86408 | -0.91276 | 35186 ft | 418 kts | 211° |
| 2026-05-01 13:25 | 38.81337 | -0.94746 | 35204 ft | 410 kts | 211° |
| 2026-05-01 13:26 | 38.76306 | -0.98188 | 34985 ft | 410 kts | 211° |
| 2026-05-01 13:26 | 38.74610 | -0.99345 | 34813 ft | 406 kts | 211° |
| 2026-05-01 13:26 | 38.72157 | -1.01016 | 34442 ft | 403 kts | 211° |
| 2026-05-01 13:26 | 38.69693 | -1.02694 | 34075 ft | 400 kts | 211° |
| 2026-05-01 13:27 | 38.67245 | -1.04359 | 33659 ft | 397 kts | 211° |
| 2026-05-01 13:27 | 38.64818 | -1.06010 | 33266 ft | 394 kts | 211° |
| 2026-05-01 13:27 | 38.60016 | -1.09274 | 32511 ft | 388 kts | 211° |
| 2026-05-01 13:28 | 38.55288 | -1.12484 | 31778 ft | 382 kts | 211° |
| 2026-05-01 13:28 | 38.52951 | -1.14069 | 31418 ft | 379 kts | 211° |
| 2026-05-01 13:29 | 38.48317 | -1.17208 | 30713 ft | 375 kts | 211° |
| 2026-05-01 13:29 | 38.43733 | -1.20309 | 29963 ft | 371 kts | 211° |
| 2026-05-01 13:30 | 38.34772 | -1.26357 | 28453 ft | 361 kts | 211° |
| 2026-05-01 13:31 | 38.30339 | -1.29345 | 27735 ft | 361 kts | 211° |
| 2026-05-01 13:31 | 38.23698 | -1.33811 | 26640 ft | 357 kts | 211° |
| 2026-05-01 13:32 | 38.19324 | -1.36745 | 25931 ft | 353 kts | 211° |
| 2026-05-01 13:33 | 38.12852 | -1.41082 | 24872 ft | 348 kts | 211° |
| 2026-05-01 13:33 | 38.08590 | -1.43934 | 24183 ft | 345 kts | 211° |
| 2026-05-01 13:34 | 38.04351 | -1.46767 | 23437 ft | 343 kts | 210° |
| 2026-05-01 13:34 | 38.00177 | -1.49552 | 22697 ft | 339 kts | 210° |
| 2026-05-01 13:35 | 37.96071 | -1.52290 | 22009 ft | 334 kts | 210° |
| 2026-05-01 13:35 | 37.94014 | -1.53659 | 21667 ft | 332 kts | 210° |
| 2026-05-01 13:35 | 37.89942 | -1.56362 | 21000 ft | 329 kts | 210° |
| 2026-05-01 13:36 | 37.87917 | -1.57684 | 20671 ft | 327 kts | 210° |
| 2026-05-01 13:36 | 37.85896 | -1.58993 | 20336 ft | 325 kts | 210° |
| 2026-05-01 13:36 | 37.81892 | -1.61585 | 19695 ft | 322 kts | 210° |
| 2026-05-01 13:37 | 37.79904 | -1.62873 | 19366 ft | 321 kts | 210° |
| 2026-05-01 13:37 | 37.77920 | -1.64157 | 19045 ft | 320 kts | 210° |
| 2026-05-01 13:37 | 37.75943 | -1.65437 | 18721 ft | 319 kts | 210° |
| 2026-05-01 13:37 | 37.73965 | -1.66717 | 18376 ft | 319 kts | 210° |
| 2026-05-01 13:38 | 37.70018 | -1.69270 | 17656 ft | 317 kts | 210° |
| 2026-05-01 13:38 | 37.68055 | -1.70539 | 17324 ft | 316 kts | 210° |
| 2026-05-01 13:38 | 37.66105 | -1.71798 | 16991 ft | 314 kts | 210° |
| 2026-05-01 13:39 | 37.64162 | -1.73052 | 16672 ft | 312 kts | 210° |
| 2026-05-01 13:39 | 37.62232 | -1.74297 | 16357 ft | 311 kts | 210° |
| 2026-05-01 13:39 | 37.60309 | -1.75537 | 16027 ft | 310 kts | 209° |
| 2026-05-01 13:39 | 37.58397 | -1.76769 | 15710 ft | 308 kts | 209° |
| 2026-05-01 13:40 | 37.56487 | -1.77999 | 15399 ft | 307 kts | 209° |
| 2026-05-01 13:40 | 37.54586 | -1.79223 | 15083 ft | 306 kts | 209° |
| 2026-05-01 13:40 | 37.52693 | -1.80441 | 14770 ft | 305 kts | 209° |
| 2026-05-01 13:40 | 37.50804 | -1.81655 | 14462 ft | 305 kts | 209° |
| 2026-05-01 13:41 | 37.48915 | -1.82869 | 14150 ft | 304 kts | 209° |
| 2026-05-01 13:41 | 37.47033 | -1.84078 | 13822 ft | 304 kts | 209° |
| 2026-05-01 13:41 | 37.45149 | -1.85287 | 13479 ft | 303 kts | 209° |
| 2026-05-01 13:41 | 37.43273 | -1.86490 | 13153 ft | 302 kts | 209° |
| 2026-05-01 13:42 | 37.41406 | -1.87687 | 12833 ft | 300 kts | 209° |
| 2026-05-01 13:42 | 37.39550 | -1.88877 | 12521 ft | 299 kts | 209° |
| 2026-05-01 13:42 | 37.37701 | -1.90061 | 12219 ft | 298 kts | 209° |
| 2026-05-01 13:42 | 37.35879 | -1.91227 | 11904 ft | 297 kts | 209° |
| 2026-05-01 13:43 | 37.34038 | -1.92406 | 11601 ft | 296 kts | 209° |
| 2026-05-01 13:43 | 37.32204 | -1.93578 | 11290 ft | 296 kts | 209° |
| 2026-05-01 13:43 | 37.30370 | -1.94751 | 10988 ft | 296 kts | 209° |
| 2026-05-01 13:43 | 37.28538 | -1.95922 | 10669 ft | 295 kts | 209° |
| 2026-05-01 13:44 | 37.26710 | -1.97088 | 10373 ft | 294 kts | 209° |
| 2026-05-01 13:44 | 37.24923 | -1.98227 | 10230 ft | 281 kts | 209° |
| 2026-05-01 13:44 | 37.23201 | -1.99349 | 9908 ft | 278 kts | 210° |
| 2026-05-01 13:44 | 37.21490 | -2.00498 | 9575 ft | 279 kts | 210° |
| 2026-05-01 13:45 | 37.19783 | -2.01650 | 9279 ft | 278 kts | 210° |
| 2026-05-01 13:45 | 37.18081 | -2.02798 | 8965 ft | 278 kts | 210° |
| 2026-05-01 13:45 | 37.16374 | -2.03945 | 8652 ft | 278 kts | 210° |
| 2026-05-01 13:45 | 37.14668 | -2.05090 | 8330 ft | 278 kts | 210° |
| 2026-05-01 13:46 | 37.12962 | -2.06233 | 8016 ft | 277 kts | 210° |
| 2026-05-01 13:46 | 37.11258 | -2.07374 | 7697 ft | 277 kts | 209° |
| 2026-05-01 13:46 | 37.09583 | -2.08494 | 7401 ft | 277 kts | 208° |
| 2026-05-01 13:46 | 37.07731 | -2.09222 | 7065 ft | 279 kts | 184° |
| 2026-05-01 13:47 | 37.05873 | -2.09124 | 6793 ft | 278 kts | 175° |
| 2026-05-01 13:47 | 37.03951 | -2.08886 | 6322 ft | 277 kts | 174° |
| 2026-05-01 13:47 | 37.02079 | -2.08651 | 5966 ft | 271 kts | 174° |
| 2026-05-01 13:47 | 37.00225 | -2.08429 | 5641 ft | 264 kts | 174° |
| 2026-05-01 13:48 | 36.98451 | -2.08226 | 5345 ft | 258 kts | 174° |
| 2026-05-01 13:48 | 36.96682 | -2.08028 | 5053 ft | 252 kts | 174° |
| 2026-05-01 13:48 | 36.94980 | -2.07839 | 4796 ft | 240 kts | 174° |
| 2026-05-01 13:48 | 36.93352 | -2.07727 | 4481 ft | 230 kts | 186° |
| 2026-05-01 13:49 | 36.91928 | -2.08466 | 4216 ft | 220 kts | 221° |
| 2026-05-01 13:49 | 36.91072 | -2.09982 | 4085 ft | 210 kts | 251° |
| 2026-05-01 13:49 | 36.90620 | -2.11747 | 3878 ft | 218 kts | 252° |
| 2026-05-01 13:49 | 36.90166 | -2.13523 | 3613 ft | 211 kts | 252° |
| 2026-05-01 13:50 | 36.89738 | -2.15242 | 3341 ft | 204 kts | 252° |
| 2026-05-01 13:50 | 36.89324 | -2.16921 | 3072 ft | 200 kts | 252° |
| 2026-05-01 13:50 | 36.88918 | -2.18572 | 2810 ft | 197 kts | 252° |
| 2026-05-01 13:50 | 36.88519 | -2.20195 | 2547 ft | 194 kts | 252° |
| 2026-05-01 13:51 | 36.88126 | -2.21791 | 2313 ft | 191 kts | 251° |
| 2026-05-01 13:51 | 36.87736 | -2.23376 | 2058 ft | 188 kts | 251° |
| 2026-05-01 13:51 | 36.87362 | -2.24903 | 1816 ft | 178 kts | 251° |
| 2026-05-01 13:51 | 36.87006 | -2.26349 | 1590 ft | 171 kts | 252° |
| 2026-05-01 13:52 | 36.86665 | -2.27736 | 1371 ft | 162 kts | 253° |
| 2026-05-01 13:52 | 36.86350 | -2.29023 | 1124 ft | 151 kts | 253° |
| 2026-05-01 13:52 | 36.86047 | -2.30259 | 946 ft | 148 kts | 254° |
| 2026-05-01 13:52 | 36.85747 | -2.31485 | 751 ft | 147 kts | 253° |
| 2026-05-01 13:53 | 36.85451 | -2.32694 | 543 ft | 144 kts | 252° |
| 2026-05-01 13:53 | 36.84886 | -2.35009 | 153 ft | 135 kts | 252° |
| 2026-05-01 13:53 | 36.84620 | -2.36092 | 57 ft | 118 kts | 253° |
| 2026-05-01 13:54 | 36.84424 | -2.36895 | 59 ft | 75 kts | 253° |
| 2026-05-01 13:54 | 36.84295 | -2.37418 | 59 ft | 50 kts | 253° |
| 2026-05-01 13:54 | 36.84209 | -2.37779 | 62 ft | 39 kts | 256° |
| 2026-05-01 13:54 | 36.84204 | -2.38032 | 62 ft | 20 kts | 279° |
| 2026-05-01 13:55 | 36.84221 | -2.38150 | 60 ft | 12 kts | 280° |
| 2026-05-01 13:55 | 36.84280 | -2.38171 | 60 ft | 12 kts | 52° |
| 2026-05-01 13:55 | 36.84308 | -2.38073 | 65 ft | 12 kts | 73° |
| 2026-05-01 13:55 | 36.84332 | -2.37977 | 65 ft | 11 kts | 72° |
| 2026-05-01 13:56 | 36.84371 | -2.37907 | 63 ft | 10 kts | 19° |
| 2026-05-01 13:56 | 36.84438 | -2.37916 | 66 ft | 10 kts | 10° |
| 2026-05-01 13:56 | 36.84486 | -2.37863 | 65 ft | 10 kts | 70° |
| 2026-05-01 13:56 | 36.84512 | -2.37761 | 63 ft | 15 kts | 72° |
| 2026-05-01 13:57 | 36.84543 | -2.37636 | 64 ft | 15 kts | 72° |
| 2026-05-01 13:57 | 36.84556 | -2.37553 | 66 ft | 15 kts | 96° |
| 2026-05-01 13:57 | 36.84547 | -2.37408 | 66 ft | 13 kts | 73° |
| 2026-05-01 13:57 | 36.84568 | -2.37319 | 60 ft | 8 kts | 72° |
| 2026-05-01 13:58 | 36.84592 | -2.37266 | 64 ft | 7 kts | 24° |
| 2026-05-01 13:58 | 36.84636 | -2.37276 | 61 ft | 5 kts | 343° |
| 2026-05-01 13:58 | 36.84664 | -2.37281 | 67 ft | 4 kts | 21° |
| 2026-05-01 13:58 | 36.84660 | -2.37256 | 66 ft | 4 kts | 139° |
| 2026-05-01 13:59 | 36.84651 | -2.37241 | 63 ft | 0 kts | 117° |
| 2026-05-01 13:59 | 36.84652 | -2.37249 | 64 ft | 0 kts | 112° |